Terminal Aerodrome Forecast
Issued by NWS Portland, ME

Home | Current Version | Previous Version | Text Only | Print | Product List | Glossary On
Versions: 1 2 3 4 5 6 7 8 9 10 11 12 13 14 15 16 17 18 19 20 21
284
FTUS41 KGYX 061132
TAFCON
TAF
KCON 061132Z 0612/0712 31005KT P6SM OVC030
     FM061400 03007KT P6SM OVC050
     FM070000 08002KT P6SM OVC015
     FM070500 05001KT P6SM OVC009=

USA.gov is the U.S. government's official web portal to all federal, state and local government web resources and services.